Aktuální počasí v Česku a ve světě - METAR

Seznam meteostanic umístěných nejčasteji na letišti v ČR a ve světě

Vyhledat místa podle abecedy:
A B C D E F G H I J K L M N O P Q R S T U V W X Y Z

Filtrovat:

ID stanice:
a/nebo
Název místa (fulltext):
 
Místo (ID)Naposledy načteno 
Liberec (Liberec) 29.07.2021 09:00 UTC Zobrazit data
Místo: Liberec
Teplota: 20 °C (pocitová: 19.8 °C)
Vítr: 2 m/s z(e) 210°
Počasí: oblačno
Dohlednost: 40 km
Zákl. oblačnosti: 4/8 750 m
Vlhkost: 64%
Luká (Luka) 29.07.2021 09:00 UTC Zobrazit data
Místo: Luká
Teplota: 21 °C (pocitová: 20.7 °C)
Vítr: 3 m/s z(e) 250°
Počasí: skorojasno
Dohlednost: 60 km
Zákl. oblačnosti: 1/8 660 m
Vlhkost: 69%
Lysá Hora (Lysa Hora) 29.07.2021 09:00 UTC Zobrazit data
Místo: Lysá Hora
Teplota: 16 °C (pocitová: 13.5 °C)
Vítr: 4 m/s z(e) 280°
Počasí: skorojasno
Dohlednost: 50 km
Zákl. oblačnosti: 1/8 180 m
Vlhkost: 63%
L'viv (UKLL) 13.12.2012 15:00 UTC  
La Palma (GCLA) 29.07.2021 09:00 UTC Zobrazit METAR
GCLA 290900Z 01018KT 350V050 9999 FEW027 BKN031 23/16 Q1017
La Paz (SLLP) 29.07.2021 01:00 UTC Zobrazit METAR
SLLP 290100Z 08006KT 030V110 9999 SCT070 SCT200 06/00 Q1035
Laayoune (GMML) 29.07.2021 09:00 UTC Zobrazit METAR
GMML 290900Z 02014KT 5000 OVC013 21/19 Q1013 NOSIG
Larnaca (LCLK) 29.07.2021 09:00 UTC Zobrazit METAR
LCLK 290900Z 09010KT 8000 NSC 37/13 Q1003 BECMG 14010KT
Leipzig-Halle (EDDP) 29.07.2021 08:50 UTC Zobrazit METAR
EDDP 290850Z 23017KT 9999 SCT043 23/13 Q1011 BECMG 23020G30KT
Libreville (FOOL) 29.07.2021 09:00 UTC Zobrazit METAR
FOOL 290900Z 16009KT 9999 SCT013 26/22 Q1015 NOSIG
Liege (EBLG) 29.07.2021 08:50 UTC Zobrazit METAR
EBLG 290850Z 24017KT 9999 SCT028 18/10 Q1013 NOSIG
Liepaja (EVLA) 29.07.2021 08:50 UTC Zobrazit METAR
EVLA 290850Z AUTO 23015KT 9999 SCT024/// SCT031/// 23/18 Q1006
Lille (LFQQ) 29.07.2021 09:00 UTC Zobrazit METAR
LFQQ 290900Z AUTO 24016KT 9999 FEW024 BKN030 BKN035 19/11 Q1012 TEMPO 22015G25KT
Lilongwe (FWLI) 04.06.2013 21:00 UTC Zobrazit METAR
FWLI 042100Z 05003KT CAVOK 14/11 Q1023 NOSIG
Lima - Callao (SPIM) 07.06.2019 22:00 UTC Zobrazit METAR
SPIM 072200Z /////KT 9999 BKN035 18/15 Q1015 RMK PP000
Limnos (LGLM) 29.07.2021 08:50 UTC Zobrazit METAR
LGLM 290850Z 03009KT CAVOK 31/19 Q1013
Linz (LOWL) 29.07.2021 08:50 UTC Zobrazit METAR
LOWL 290850Z 29003KT 220V020 9999 FEW022 21/15 Q1017 NOSIG
Lisbon (LPPT) 29.07.2021 09:00 UTC Zobrazit METAR
LPPT 290900Z 33011KT 290V360 9999 FEW020 20/15 Q1015
Liverpool (EGGP) 29.07.2021 08:50 UTC Zobrazit METAR
EGGP 290850Z 26020KT 9999 SCT028 BKN032 16/11 Q1006
Ljubljana (LJLJ) 29.07.2021 09:00 UTC Zobrazit METAR
LJLJ 290900Z VRB03KT 9999 SCT050 24/18 Q1017 NOSIG
Lome (DXXX) 29.07.2021 09:00 UTC Zobrazit METAR
DXXX 290900Z 24007KT 200V270 9999 SCT011 26/23 Q1016 NOSIG
London (EGLL) 29.07.2021 08:50 UTC Zobrazit METAR
EGLL 290850Z AUTO 26016KT 9999 BKN029 18/10 Q1011 NOSIG
Luanda (FNLU) 29.07.2021 09:00 UTC Zobrazit METAR
FNLU 290900Z VRB03KT 9000 BKN021 25/18 Q1014 NOSIG
Lulea (ESPA) 29.07.2021 08:50 UTC Zobrazit METAR
ESPA 290850Z 03007KT 350V060 CAVOK 23/16 Q0998
Lusaka (FLLS) 13.01.2014 07:00 UTC Zobrazit METAR
FLLS 130700Z 36009KT CAVOK 25/20 Q1019
Luxembourg Airport (ELLX) 29.07.2021 08:50 UTC Zobrazit METAR
ELLX 290850Z 24011KT 9999 SCT021 BKN050 15/11 Q1015 NOSIG
Lyon (LFLL) 29.07.2021 09:00 UTC Zobrazit METAR
LFLL 290900Z 35004KT 300V090 9999 FEW028 22/14 Q1017 NOSIG
Reklama

Reklama


Newslettter

Počasí na Váš email

Emaily jsou bez reklamy a bez spamu



Odhlásit newsletter



Kontaktujte nás

Kontaktujte Slunečno.cz

Kontaktujte provozovatele Slunecno.cz

Další české internetové stránky (nejen) o počasí najdete v katalogu TOPlist - weby o počasí nebo vyhledejte na internetu, co jste tu na Počasí Slunečno Slunečnu zatím nenašli:
Přidat mezzi oblíbené stránkyPřidat Slunečno.cz do oblíbených | Nastavit jako HOMEPAGENastavit Slunečno.cz jako HOMEPAGE

Posunout stránku nahoru Posunout stránku nahoru Posunout stránku nahoru
Reklama